Terminal Aerodrome Forecast
Issued by NWS

Home | Current Version | Previous Version | Graphics & Text | Print | Product List | Glossary On
Versions: 1 2 3 4 5 6 7 8 9 10 11 12 13 14 15 16 17 18 19
000
FTUS43 KMPX 311300 AAA
TAFRNH
TAF AMD
KRNH 311335Z 3114/0112 14006KT P6SM OVC004
     FM311400 14009KT P6SM BKN006
     FM311500 15013G20KT 6SM BR FEW009 SCT060 BKN110
     FM312000 17013G21KT P6SM VCTS SCT030CB BKN080
      TEMPO 3121/3123 1SM TSRA BKN020CB
     FM010100 18010KT P6SM VCTS SCT040CB BKN080
     FM010500 22008KT 6SM BR SCT020 BKN070=

USA.gov is the U.S. government's official web portal to all federal, state and local government web resources and services.